Wolf, WY (82844)

3:36 PM MDT on August 24, 2016 (GMT -0600)
uptown | | Change Station

Elev 4327 ft 44.96 °N, 107.33 °W | Updated 15 seconds ago

Cloudy
Cloudy
63.7 °F
Feels Like 63.7 °F
N
13.4
Wind Variable Wind from WNW
Gusts 17.5 mph

Today
High -- | Low -- °F
--% Chance of Precip.
Yesterday
High -- | Low -- °F
Precip. -- in
Pressure 30.19 in
Visibility 10.0 miles
Clouds Overcast 5000 ft
Dew Point 44 °F
Humidity 48%
Rainfall 0.00 in
Snow Depth Not available.
6:22 AM 7:58 PM
Waning Gibbous, 53% visible
METAR KSHR 242053Z AUTO 31010KT 10SM OVC050 18/06 A3024 RMK AO2 SLP222 T01780061 55003
Pressure 30.19 in
Visibility 10.0 miles
Clouds Overcast 5000 ft
Dew Point 44 °F
Humidity 48%
Rainfall 0.00 in
Snow Depth Not available.
6:22 AM 7:58 PM
Waning Gibbous, 53% visible
METAR KSHR 242053Z AUTO 31010KT 10SM OVC050 18/06 A3024 RMK AO2 SLP222 T01780061 55003

10-Day Weather Forecast

Almanac

Astronomy

Aug. 24, 2016 Rise Set
Actual Time
Civil Twilight
Nautical Twilight
Astronomical Twilight
Moon
Length of Visible Light
Length of Day
Tomorrow will be .
, % of the Moon is Illuminated

Today's Extremes

State Highs State Lows

Community

WunderPhotos

Upload Photos

1,934,720 photos uploaded!

WunderBlog® & News

Nearby

Air Quality

  Air Quality AQ Index Pollutant
Not available.

Snow Depth

Station Depth Elevation

Earthquake Activity

City Distance Mag. Time & Date
Minimum magnitude displayed is 2.5.

Coastal Water Temperatures

Place Temperature

Stations

Nearby Weather Stations

Station Location Temp. Windchill Dew Point Humidity Wind Precip. Elev Updated Type
                   

Watches & Warnings

There are currently no watches in effect.